Rush, Pennsylvania
Current Conditions -  °F | °C
As of 12:00 PM on Friday 28 Nov 2014 (Local Time) from KMUI Reporting Station
Light Rain Light Rain  
Wind Chill: 23°   Ceiling: 4500
Heat Index: 32°   Visibility: 10mi
Dew Point: 19°   Wind: 13mph
Humidity: 60%   Direction: 270°W
Pressure: 30.24"   Gusts: NA
Location:  40.5383°N, 76.6127°W
Report Text: KMUI 281700Z AUTO 27011KT 10SM -RA SCT036 BKN045 OVC055 00/M07 A3024 RMK AO2 RAB1700 $
Loading
Personal Weather Stations






























Interactive Weather Map New forecast layout! Learn more

10-Day Weather Forecast

Advertisements
Track Severe Weather on mobile